createdAt,value
2017-08-07T00:01:56.230Z,14.90
2017-08-07T00:04:24.055Z,14.80
2017-08-07T00:06:52.694Z,14.80
2017-08-07T00:09:20.519Z,14.80
2017-08-07T00:11:48.350Z,14.80
2017-08-07T00:14:16.207Z,14.90
2017-08-07T00:16:44.039Z,14.90
2017-08-07T00:19:11.917Z,14.90
2017-08-07T00:21:39.743Z,14.90
2017-08-07T00:24:07.553Z,14.80
2017-08-07T00:26:35.392Z,14.80
2017-08-07T00:29:03.193Z,14.80
2017-08-07T00:31:31.069Z,14.80
2017-08-07T00:33:59.647Z,14.70
2017-08-07T00:36:27.503Z,14.70
2017-08-07T00:38:55.345Z,14.60
2017-08-07T00:41:23.220Z,14.60
2017-08-07T00:43:51.095Z,14.60
2017-08-07T00:46:18.911Z,14.60
2017-08-07T00:48:46.752Z,14.60
2017-08-07T00:51:14.616Z,14.60
2017-08-07T00:53:42.451Z,14.60
2017-08-07T00:56:10.341Z,14.50
2017-08-07T00:58:38.167Z,14.40
2017-08-07T01:01:06.042Z,14.40
2017-08-07T01:03:33.898Z,14.40
2017-08-07T01:06:02.499Z,14.40
2017-08-07T01:08:31.131Z,14.30
2017-08-07T01:10:58.941Z,14.30
2017-08-07T01:13:27.527Z,14.20
2017-08-07T01:15:55.376Z,14.20
2017-08-07T01:18:23.260Z,14.10
2017-08-07T01:20:51.131Z,14.10
2017-08-07T01:23:18.939Z,14.10
2017-08-07T01:25:46.752Z,14.10
2017-08-07T01:28:15.343Z,14.00
2017-08-07T01:30:43.159Z,14.00
2017-08-07T01:33:11.031Z,14.00
2017-08-07T01:35:38.852Z,13.90
2017-08-07T01:38:06.656Z,13.90
2017-08-07T01:40:34.543Z,13.90
2017-08-07T01:43:03.137Z,13.70
2017-08-07T01:45:31.015Z,13.70
2017-08-07T01:47:58.859Z,13.70
2017-08-07T01:50:26.767Z,13.60
2017-08-07T01:52:54.627Z,13.60
2017-08-07T01:55:22.438Z,13.50
2017-08-07T01:57:51.148Z,13.50
2017-08-07T02:00:19.053Z,13.50
2017-08-07T02:02:46.873Z,13.50
2017-08-07T02:05:14.715Z,13.50
2017-08-07T02:07:43.300Z,13.50
2017-08-07T02:10:11.939Z,13.50
2017-08-07T02:12:39.758Z,13.50
2017-08-07T02:15:07.583Z,13.50
2017-08-07T02:17:35.438Z,13.50
2017-08-07T02:20:03.312Z,13.50
2017-08-07T02:22:31.172Z,13.50
2017-08-07T02:24:58.983Z,13.40
2017-08-07T02:27:26.814Z,13.40
2017-08-07T02:29:55.415Z,13.40
2017-08-07T02:32:23.244Z,13.40
2017-08-07T02:34:51.112Z,13.50
2017-08-07T02:37:18.930Z,13.40
2017-08-07T02:39:46.737Z,13.40
2017-08-07T02:42:14.592Z,13.50
2017-08-07T02:44:42.404Z,13.50
2017-08-07T02:47:10.282Z,13.50
2017-08-07T02:49:38.100Z,13.50
2017-08-07T02:52:06.681Z,13.50
2017-08-07T02:54:35.289Z,13.50
2017-08-07T02:57:03.119Z,13.60
2017-08-07T02:59:30.996Z,13.60
2017-08-07T03:01:59.588Z,13.60
2017-08-07T03:04:28.152Z,13.60
2017-08-07T03:06:56.770Z,13.60
2017-08-07T03:09:24.598Z,13.50
2017-08-07T03:11:53.251Z,13.60
2017-08-07T03:14:21.059Z,13.50
2017-08-07T03:16:48.868Z,13.50
2017-08-07T03:19:16.711Z,13.50
2017-08-07T03:21:44.515Z,13.50
2017-08-07T03:24:12.387Z,13.50
2017-08-07T03:26:40.219Z,13.50
2017-08-07T03:29:08.029Z,13.50
2017-08-07T03:31:36.644Z,13.50
2017-08-07T03:34:04.465Z,13.50
2017-08-07T03:36:33.116Z,13.50
2017-08-07T03:39:00.928Z,13.50
2017-08-07T03:41:28.746Z,13.50
2017-08-07T03:43:56.589Z,13.50
2017-08-07T03:46:24.405Z,13.40
2017-08-07T03:48:53.039Z,13.50
2017-08-07T03:51:20.867Z,13.40
2017-08-07T03:53:48.680Z,13.50
2017-08-07T03:56:16.540Z,13.60
2017-08-07T03:58:44.379Z,13.60
2017-08-07T04:01:12.260Z,13.70
2017-08-07T04:03:40.070Z,13.70
2017-08-07T04:06:08.693Z,13.80
2017-08-07T04:08:36.543Z,13.70
2017-08-07T04:11:04.371Z,13.80
2017-08-07T04:13:33.060Z,13.90
2017-08-07T04:16:00.900Z,13.90
2017-08-07T04:18:29.533Z,14.00
2017-08-07T04:20:57.375Z,14.00
2017-08-07T04:23:25.950Z,14.20
2017-08-07T04:25:54.617Z,14.20
2017-08-07T04:28:22.434Z,14.20
2017-08-07T04:30:50.243Z,14.30
2017-08-07T04:33:18.095Z,14.40
2017-08-07T04:35:45.903Z,14.50
2017-08-07T04:38:13.792Z,14.60
2017-08-07T04:40:41.614Z,14.80
2017-08-07T04:43:10.195Z,14.80
2017-08-07T04:45:38.859Z,14.80
2017-08-07T04:48:06.675Z,14.80
2017-08-07T04:50:34.555Z,14.80
2017-08-07T04:53:02.361Z,14.90
2017-08-07T04:55:30.936Z,15.10
2017-08-07T04:57:59.555Z,15.00
2017-08-07T05:00:27.384Z,15.00
2017-08-07T05:02:55.557Z,15.00
2017-08-07T05:05:24.128Z,15.20
2017-08-07T05:07:52.715Z,15.80
2017-08-07T05:10:21.377Z,16.40
2017-08-07T05:12:49.191Z,16.40
2017-08-07T05:15:17.085Z,17.10
2017-08-07T05:17:44.914Z,17.80
2017-08-07T05:20:12.756Z,18.30
2017-08-07T05:22:41.419Z,19.30
2017-08-07T05:25:09.250Z,19.30
2017-08-07T05:27:37.153Z,19.70
2017-08-07T05:30:04.984Z,20.30
2017-08-07T05:32:32.815Z,21.20
2017-08-07T05:35:00.676Z,22.00
2017-08-07T05:37:28.522Z,23.20
2017-08-07T05:39:57.191Z,24.50
2017-08-07T05:42:25.770Z,25.50
2017-08-07T05:44:54.381Z,26.20
2017-08-07T05:47:22.232Z,26.20
2017-08-07T05:49:50.827Z,28.20
2017-08-07T05:52:18.748Z,28.10
2017-08-07T05:54:46.575Z,29.50
2017-08-07T05:57:14.433Z,30.20
2017-08-07T05:59:42.292Z,30.90
2017-08-07T06:02:10.165Z,31.70
2017-08-07T06:04:38.175Z,33.20
2017-08-07T06:07:06.816Z,34.70
2017-08-07T06:09:34.678Z,34.60
2017-08-07T06:12:02.556Z,35.30
2017-08-07T06:14:30.396Z,35.70
2017-08-07T06:16:58.289Z,36.00
2017-08-07T06:19:26.109Z,35.90
2017-08-07T06:21:53.937Z,36.10
2017-08-07T06:24:22.560Z,34.30
2017-08-07T06:26:50.404Z,34.30
2017-08-07T06:29:19.057Z,33.60
2017-08-07T06:31:46.881Z,33.60
2017-08-07T06:34:14.700Z,33.90
2017-08-07T06:36:42.579Z,35.10
2017-08-07T06:39:11.152Z,35.10
2017-08-07T06:41:39.784Z,34.80
2017-08-07T06:44:07.607Z,34.70
2017-08-07T06:46:35.492Z,34.80
2017-08-07T06:49:03.328Z,35.30
2017-08-07T06:51:31.190Z,34.80
2017-08-07T06:53:59.056Z,35.60
2017-08-07T06:56:26.896Z,35.30
2017-08-07T06:58:54.785Z,34.20
2017-08-07T07:01:22.601Z,33.60
2017-08-07T07:03:50.453Z,32.60
2017-08-07T07:06:18.419Z,32.90
2017-08-07T07:08:46.268Z,34.20
2017-08-07T07:11:14.173Z,35.10
2017-08-07T07:13:41.995Z,35.80
2017-08-07T07:16:09.816Z,36.50
2017-08-07T07:18:37.696Z,36.50
2017-08-07T07:21:06.298Z,35.70
2017-08-07T07:23:34.200Z,35.70
2017-08-07T07:26:02.034Z,35.40
2017-08-07T07:28:29.860Z,35.10
2017-08-07T07:30:58.500Z,35.90
2017-08-07T07:33:26.401Z,35.90
2017-08-07T07:35:55.021Z,35.40
2017-08-07T07:38:22.855Z,34.90
2017-08-07T07:40:50.733Z,33.70
2017-08-07T07:43:18.619Z,33.30
2017-08-07T07:45:46.464Z,34.00
2017-08-07T07:48:14.384Z,34.60
2017-08-07T07:50:42.242Z,35.60
2017-08-07T07:53:10.103Z,34.20
2017-08-07T07:55:37.955Z,33.90
2017-08-07T07:58:05.789Z,33.90
2017-08-07T08:00:33.693Z,34.20
2017-08-07T08:03:01.537Z,35.20
2017-08-07T08:05:29.417Z,36.30
2017-08-07T08:07:57.261Z,36.50
2017-08-07T08:10:25.103Z,37.30
2017-08-07T08:12:53.008Z,37.70
2017-08-07T08:15:20.847Z,37.80
2017-08-07T08:17:48.664Z,36.60
2017-08-07T08:20:16.512Z,37.10
2017-08-07T08:22:44.346Z,37.20
2017-08-07T08:25:12.219Z,35.40
2017-08-07T08:27:40.036Z,33.40
2017-08-07T08:30:07.904Z,33.60
2017-08-07T08:32:35.915Z,34.50
2017-08-07T08:35:05.382Z,35.40
2017-08-07T08:37:33.424Z,35.20
2017-08-07T08:40:02.113Z,31.40
2017-08-07T08:42:29.991Z,31.40
2017-08-07T08:44:57.848Z,31.60
2017-08-07T08:47:25.708Z,32.30
2017-08-07T08:49:53.699Z,31.30
2017-08-07T08:52:21.540Z,30.60
2017-08-07T08:54:49.452Z,32.30
2017-08-07T08:57:17.344Z,30.50
2017-08-07T08:59:45.970Z,26.50
2017-08-07T09:02:13.878Z,26.40
2017-08-07T09:04:41.735Z,26.10
2017-08-07T09:07:09.597Z,28.90
2017-08-07T09:09:37.462Z,31.40
2017-08-07T09:12:05.302Z,31.90
2017-08-07T09:14:33.207Z,33.30
2017-08-07T09:17:01.043Z,34.20
2017-08-07T09:19:28.868Z,34.20
2017-08-07T09:21:56.730Z,34.60
2017-08-07T09:24:24.579Z,35.60
2017-08-07T09:26:53.269Z,35.10
2017-08-07T09:29:21.129Z,35.10
2017-08-07T09:31:48.960Z,33.30
2017-08-07T09:34:16.868Z,32.90
2017-08-07T09:36:44.695Z,32.10
2017-08-07T09:39:13.372Z,30.20
2017-08-07T09:41:41.986Z,29.70
2017-08-07T09:44:09.895Z,29.60
2017-08-07T09:46:37.744Z,29.40
2017-08-07T09:49:05.581Z,29.20
2017-08-07T09:51:33.480Z,28.50
2017-08-07T09:54:01.310Z,28.00
2017-08-07T09:56:29.160Z,27.70
2017-08-07T09:58:57.839Z,27.00
2017-08-07T10:01:26.442Z,26.70
2017-08-07T10:03:54.351Z,26.70
2017-08-07T10:06:22.192Z,26.70
2017-08-07T10:08:50.012Z,26.60
2017-08-07T10:11:18.660Z,25.60
2017-08-07T10:13:46.505Z,25.60
2017-08-07T10:16:14.401Z,25.70
2017-08-07T10:18:42.228Z,26.20
2017-08-07T10:21:10.071Z,26.20
2017-08-07T10:23:37.928Z,26.20
2017-08-07T10:26:05.785Z,26.00
2017-08-07T10:28:34.447Z,26.00
2017-08-07T10:31:02.382Z,26.00
2017-08-07T10:33:30.266Z,25.70
2017-08-07T10:35:58.139Z,25.30
2017-08-07T10:38:25.970Z,25.70
2017-08-07T10:40:53.860Z,25.90
2017-08-07T10:43:21.692Z,26.10
2017-08-07T10:45:49.532Z,25.90
2017-08-07T10:48:17.413Z,25.90
2017-08-07T10:50:45.247Z,26.10
2017-08-07T10:53:13.125Z,26.20
2017-08-07T10:55:40.990Z,25.70
2017-08-07T10:58:08.794Z,25.40
2017-08-07T11:00:36.672Z,25.30
2017-08-07T11:03:04.509Z,25.60
2017-08-07T11:05:32.403Z,26.30
2017-08-07T11:08:00.251Z,26.70
2017-08-07T11:10:28.086Z,27.10
2017-08-07T11:12:55.952Z,26.80
2017-08-07T11:15:23.793Z,26.30
2017-08-07T11:17:51.716Z,26.20
2017-08-07T11:20:19.571Z,26.30
2017-08-07T11:22:47.416Z,26.20
2017-08-07T11:25:15.296Z,26.30
2017-08-07T11:27:43.146Z,26.30
2017-08-07T11:30:11.046Z,26.00
2017-08-07T11:32:39.663Z,25.20
2017-08-07T11:35:07.491Z,25.20
2017-08-07T11:37:36.130Z,24.70
2017-08-07T11:40:04.005Z,24.70
2017-08-07T11:42:31.897Z,24.50
2017-08-07T11:44:59.730Z,24.40
2017-08-07T11:47:27.575Z,24.70
2017-08-07T11:49:55.436Z,24.90
2017-08-07T11:52:23.275Z,24.70
2017-08-07T11:54:51.176Z,24.60
2017-08-07T11:57:19.071Z,24.60
2017-08-07T11:59:46.926Z,24.70
2017-08-07T12:02:14.794Z,24.90
2017-08-07T12:04:42.637Z,25.10
2017-08-07T12:07:10.528Z,24.70
2017-08-07T12:09:38.351Z,24.80
2017-08-07T12:12:06.215Z,24.70
2017-08-07T12:14:34.092Z,24.70
2017-08-07T12:17:01.918Z,24.70
2017-08-07T12:19:29.811Z,24.70
2017-08-07T12:21:57.642Z,24.70
2017-08-07T12:24:25.485Z,24.90
2017-08-07T12:26:54.127Z,25.10
2017-08-07T12:29:21.969Z,25.10
2017-08-07T12:31:49.856Z,25.30
2017-08-07T12:34:17.709Z,25.30
2017-08-07T12:36:45.555Z,25.30
2017-08-07T12:39:13.416Z,25.50
2017-08-07T12:41:41.264Z,25.60
2017-08-07T12:44:09.921Z,26.60
2017-08-07T12:46:37.766Z,26.60
2017-08-07T12:49:05.582Z,27.00
2017-08-07T12:51:33.455Z,26.80
2017-08-07T12:54:01.271Z,27.00
2017-08-07T12:56:29.143Z,26.80
2017-08-07T12:58:56.997Z,26.80
2017-08-07T13:01:24.837Z,26.30
2017-08-07T13:03:52.703Z,26.00
2017-08-07T13:06:20.519Z,25.80
2017-08-07T13:08:48.429Z,25.30
2017-08-07T13:11:16.265Z,24.90
2017-08-07T13:13:44.085Z,24.70
2017-08-07T13:16:12.055Z,24.70
2017-08-07T13:18:40.668Z,24.80
2017-08-07T13:21:08.560Z,24.70
2017-08-07T13:23:36.388Z,24.80
2017-08-07T13:26:04.225Z,24.60
2017-08-07T13:28:32.119Z,24.50
2017-08-07T13:30:59.964Z,24.70
2017-08-07T13:33:28.640Z,24.70
2017-08-07T13:35:57.262Z,24.70
2017-08-07T13:38:25.117Z,24.70
2017-08-07T13:40:53.015Z,24.60
2017-08-07T13:43:20.852Z,24.40
2017-08-07T13:45:48.756Z,24.20
2017-08-07T13:48:16.588Z,24.20
2017-08-07T13:50:44.445Z,24.20
2017-08-07T13:53:12.374Z,24.30
2017-08-07T13:55:41.037Z,24.10
2017-08-07T13:58:08.956Z,24.00
2017-08-07T14:00:36.795Z,24.10
2017-08-07T14:03:05.410Z,24.30
2017-08-07T14:05:33.282Z,24.30
2017-08-07T14:08:01.100Z,24.30
2017-08-07T14:10:29.014Z,24.30
2017-08-07T14:12:56.886Z,24.30
2017-08-07T14:15:24.756Z,24.20
2017-08-07T14:17:52.632Z,24.10
2017-08-07T14:20:20.459Z,24.10
2017-08-07T14:22:48.360Z,24.20
2017-08-07T14:25:16.260Z,24.30
2017-08-07T14:27:44.131Z,24.40
2017-08-07T14:30:11.997Z,24.50
2017-08-07T14:32:39.861Z,24.60
2017-08-07T14:35:07.769Z,24.40
2017-08-07T14:37:35.605Z,24.40
2017-08-07T14:40:03.470Z,24.20
2017-08-07T14:42:31.331Z,24.10
2017-08-07T14:44:59.191Z,24.10
2017-08-07T14:47:27.101Z,24.20
2017-08-07T14:49:54.937Z,24.30
2017-08-07T14:52:22.808Z,24.40
2017-08-07T14:54:50.694Z,24.20
2017-08-07T14:57:18.547Z,24.00
2017-08-07T14:59:46.451Z,23.90
2017-08-07T15:02:14.294Z,24.00
2017-08-07T15:04:42.925Z,24.00
2017-08-07T15:07:10.798Z,24.00
2017-08-07T15:09:38.638Z,24.00
2017-08-07T15:12:06.587Z,24.10
2017-08-07T15:14:35.180Z,24.10
2017-08-07T15:17:03.020Z,24.10
2017-08-07T15:19:30.908Z,24.10
2017-08-07T15:21:58.779Z,24.20
2017-08-07T15:24:26.694Z,24.30
2017-08-07T15:26:54.510Z,24.20
2017-08-07T15:29:22.364Z,24.10
2017-08-07T15:31:50.247Z,24.00
2017-08-07T15:34:18.083Z,24.00
2017-08-07T15:36:45.944Z,24.00
2017-08-07T15:39:14.616Z,24.10
2017-08-07T15:41:42.565Z,24.10
2017-08-07T15:44:10.431Z,24.10
2017-08-07T15:46:39.078Z,24.00
2017-08-07T15:49:06.936Z,23.90
2017-08-07T15:51:34.781Z,24.00
2017-08-07T15:54:02.713Z,24.00
2017-08-07T15:56:30.574Z,23.90
2017-08-07T15:58:58.405Z,23.90
2017-08-07T16:01:26.295Z,24.00
2017-08-07T16:03:54.142Z,24.00
2017-08-07T16:06:22.034Z,24.00
2017-08-07T16:08:50.636Z,23.90
2017-08-07T16:11:18.474Z,23.90
2017-08-07T16:13:47.106Z,23.90
2017-08-07T16:16:14.946Z,23.90
2017-08-07T16:18:42.819Z,23.90
2017-08-07T16:21:10.644Z,23.80
2017-08-07T16:23:39.249Z,23.70
2017-08-07T16:26:07.146Z,23.70
2017-08-07T16:28:34.985Z,23.70
2017-08-07T16:31:02.885Z,23.80
2017-08-07T16:33:30.719Z,23.70
2017-08-07T16:35:58.596Z,23.60
2017-08-07T16:38:26.485Z,23.50
2017-08-07T16:40:54.345Z,23.50
2017-08-07T16:43:22.229Z,23.50
2017-08-07T16:45:50.851Z,23.50
2017-08-07T16:48:18.706Z,23.40
2017-08-07T16:50:46.600Z,23.50
2017-08-07T16:53:14.429Z,23.40
2017-08-07T16:55:43.115Z,23.30
2017-08-07T16:58:10.979Z,23.30
2017-08-07T17:00:38.840Z,23.30
2017-08-07T17:03:07.480Z,23.20
2017-08-07T17:05:35.317Z,23.10
2017-08-07T17:08:03.211Z,23.10
2017-08-07T17:10:31.043Z,23.10
2017-08-07T17:12:58.885Z,23.10
2017-08-07T17:15:26.807Z,23.10
2017-08-07T17:17:54.616Z,23.00
2017-08-07T17:20:22.541Z,23.00
2017-08-07T17:22:50.376Z,22.90
2017-08-07T17:25:18.290Z,22.90
2017-08-07T17:27:46.941Z,22.70
2017-08-07T17:30:14.806Z,22.70
2017-08-07T17:32:42.705Z,22.70
2017-08-07T17:35:10.539Z,22.70
2017-08-07T17:37:38.405Z,22.60
2017-08-07T17:40:06.282Z,22.60
2017-08-07T17:42:34.110Z,22.60
2017-08-07T17:45:02.028Z,22.50
2017-08-07T17:47:30.735Z,22.40
2017-08-07T17:49:58.590Z,22.30
2017-08-07T17:52:26.440Z,22.20
2017-08-07T17:54:55.037Z,22.20
2017-08-07T17:57:22.925Z,22.10
2017-08-07T17:59:50.839Z,22.20
2017-08-07T18:02:19.428Z,22.00
2017-08-07T18:04:47.550Z,22.00
2017-08-07T18:07:15.373Z,22.00
2017-08-07T18:09:43.241Z,21.90
2017-08-07T18:12:11.041Z,21.80
2017-08-07T18:14:38.852Z,21.80
2017-08-07T18:17:07.463Z,21.60
2017-08-07T18:19:35.274Z,21.60
2017-08-07T18:22:03.136Z,21.60
2017-08-07T18:24:30.975Z,21.60
2017-08-07T18:26:58.784Z,21.50
2017-08-07T18:29:27.408Z,21.30
2017-08-07T18:31:55.224Z,21.20
2017-08-07T18:34:23.866Z,21.10
2017-08-07T18:36:51.683Z,21.10
2017-08-07T18:39:19.496Z,21.10
2017-08-07T18:41:48.280Z,21.00
2017-08-07T18:44:16.091Z,20.90
2017-08-07T18:46:43.963Z,20.90
2017-08-07T18:49:11.763Z,20.80
2017-08-07T18:51:39.579Z,20.80
2017-08-07T18:54:08.227Z,20.70
2017-08-07T18:56:36.114Z,20.70
2017-08-07T18:59:04.811Z,20.60
2017-08-07T19:01:32.668Z,20.60
2017-08-07T19:04:00.478Z,20.60
2017-08-07T19:06:28.316Z,20.50
2017-08-07T19:08:56.133Z,20.40
2017-08-07T19:11:23.988Z,20.50
2017-08-07T19:13:51.905Z,20.50
2017-08-07T19:16:21.567Z,20.40
2017-08-07T19:18:49.422Z,20.40
2017-08-07T19:21:17.228Z,20.30
2017-08-07T19:23:45.114Z,20.20
2017-08-07T19:26:12.931Z,20.20
2017-08-07T19:28:40.769Z,20.10
2017-08-07T19:31:08.609Z,20.00
2017-08-07T19:33:36.554Z,20.10
2017-08-07T19:36:04.480Z,19.90
2017-08-07T19:38:32.293Z,19.90
2017-08-07T19:41:00.221Z,19.80
2017-08-07T19:43:28.822Z,19.70
2017-08-07T19:45:56.636Z,19.70
2017-08-07T19:48:24.698Z,19.70
2017-08-07T19:50:52.524Z,19.70
2017-08-07T19:53:20.356Z,19.60
2017-08-07T19:55:48.964Z,19.60
2017-08-07T19:58:16.769Z,19.60
2017-08-07T20:00:44.647Z,19.50
2017-08-07T20:03:12.479Z,19.60
2017-08-07T20:05:40.342Z,19.50
2017-08-07T20:08:08.208Z,19.50
2017-08-07T20:10:36.037Z,19.40
2017-08-07T20:13:03.929Z,19.40
2017-08-07T20:15:31.760Z,19.40
2017-08-07T20:18:00.342Z,19.20
2017-08-07T20:20:28.981Z,19.30
2017-08-07T20:22:56.830Z,19.20
2017-08-07T20:25:24.702Z,19.20
2017-08-07T20:27:52.696Z,19.10
2017-08-07T20:30:21.624Z,19.10
2017-08-07T20:32:49.512Z,19.10
2017-08-07T20:35:17.320Z,19.00
2017-08-07T20:37:45.975Z,18.90
2017-08-07T20:40:13.780Z,18.90
2017-08-07T20:42:41.583Z,18.90
2017-08-07T20:45:09.408Z,18.80
2017-08-07T20:47:37.292Z,18.60
2017-08-07T20:50:05.151Z,18.60
2017-08-07T20:52:32.968Z,18.50
2017-08-07T20:55:00.792Z,18.50
2017-08-07T20:57:28.647Z,18.40
2017-08-07T20:59:56.521Z,18.30
2017-08-07T21:02:24.396Z,18.30
2017-08-07T21:04:52.258Z,18.20
2017-08-07T21:07:20.076Z,18.10
2017-08-07T21:09:48.716Z,18.00
2017-08-07T21:12:16.554Z,17.90
2017-08-07T21:14:44.436Z,17.90
2017-08-07T21:17:12.266Z,17.80
2017-08-07T21:19:40.099Z,17.70
2017-08-07T21:22:08.878Z,17.60
2017-08-07T21:24:36.697Z,17.60
2017-08-07T21:27:04.571Z,17.50
2017-08-07T21:29:32.376Z,17.50
2017-08-07T21:32:00.959Z,17.50
2017-08-07T21:34:29.572Z,17.50
2017-08-07T21:36:57.368Z,17.50
2017-08-07T21:39:25.264Z,17.50
2017-08-07T21:41:53.841Z,17.40
2017-08-07T21:44:22.418Z,17.30
2017-08-07T21:46:50.275Z,17.30
2017-08-07T21:49:18.678Z,17.30
2017-08-07T21:51:46.540Z,17.20
2017-08-07T21:54:15.104Z,17.10
2017-08-07T21:56:43.677Z,17.00
2017-08-07T21:59:11.504Z,17.00
2017-08-07T22:01:39.307Z,17.00
2017-08-07T22:04:07.169Z,17.00
2017-08-07T22:06:34.979Z,17.00
2017-08-07T22:09:02.786Z,16.90
2017-08-07T22:11:30.640Z,16.80
2017-08-07T22:13:58.433Z,16.70
2017-08-07T22:16:27.049Z,16.60
2017-08-07T22:18:54.852Z,16.60
2017-08-07T22:21:22.667Z,16.50
2017-08-07T22:23:50.501Z,16.50
2017-08-07T22:26:19.065Z,16.40
2017-08-07T22:28:46.957Z,16.40
2017-08-07T22:31:14.754Z,16.40
2017-08-07T22:33:42.556Z,16.30
2017-08-07T22:36:10.423Z,16.20
2017-08-07T22:38:38.211Z,16.20
2017-08-07T22:41:06.068Z,16.20
2017-08-07T22:43:34.631Z,16.00
2017-08-07T22:46:03.195Z,16.10
2017-08-07T22:48:31.028Z,16.00
2017-08-07T22:50:58.821Z,16.00
2017-08-07T22:53:26.692Z,16.00
2017-08-07T22:55:54.494Z,15.90
2017-08-07T22:58:22.295Z,15.80
2017-08-07T23:00:50.149Z,15.80
2017-08-07T23:03:17.959Z,15.80
2017-08-07T23:05:46.783Z,15.60
2017-08-07T23:08:14.590Z,15.50
2017-08-07T23:10:42.396Z,15.50
2017-08-07T23:13:10.235Z,15.50
2017-08-07T23:15:38.811Z,15.40
2017-08-07T23:18:06.669Z,15.40
2017-08-07T23:20:34.473Z,15.40
2017-08-07T23:23:02.271Z,15.40
2017-08-07T23:25:30.099Z,15.40
2017-08-07T23:27:57.887Z,15.30
2017-08-07T23:30:25.740Z,15.30
2017-08-07T23:32:53.539Z,15.20
2017-08-07T23:35:21.345Z,15.20
2017-08-07T23:37:49.233Z,15.20
2017-08-07T23:40:17.026Z,15.20
2017-08-07T23:42:44.878Z,15.00
2017-08-07T23:45:12.696Z,15.00
2017-08-07T23:47:40.502Z,15.00
2017-08-07T23:50:08.336Z,14.90
2017-08-07T23:52:36.135Z,14.90
2017-08-07T23:55:04.019Z,15.00
2017-08-07T23:57:31.851Z,15.00
2017-08-07T23:59:59.639Z,15.00
